Time;durP1;ratioP1;P1;durP2;ratioP2;P2;SDS_P1;SDS_P2;PMS_P1;PMS_P2;Temp;Humidity;BMP_temperature;BMP_pressure;BME280_temperature;BME280_humidity;BME280_pressure;Samples;Min_cycle;Max_cycle;Signal;HPM_P1;HPM_P2
2024/04/17 00:05:25;;;;;;;1.85;1.30;;;9.00;54.80;10.10;100424.00;;;;22655155;26;19998;-39
2024/04/17 00:15:28;;;;;;;4.20;1.45;;;8.90;55.00;10.00;100433.00;;;;22657895;26;20002;-39
2024/04/17 00:25:29;;;;;;;1.75;1.65;;;8.80;55.20;10.00;100443.00;;;;22633139;26;20009;-38
2024/04/17 00:35:29;;;;;;;1.15;1.10;;;8.80;55.20;10.00;100430.00;;;;22668315;26;20078;-38
2024/04/17 00:45:38;;;;;;;1.30;1.20;;;8.70;55.40;10.10;100415.00;;;;22650789;26;19998;-39
2024/04/17 00:55:40;;;;;;;1.17;1.17;;;8.80;55.80;10.20;100380.00;;;;22668354;26;20002;-39
2024/04/17 01:05:41;;;;;;;1.80;1.70;;;8.80;55.80;10.30;100413.00;;;;22662901;26;20425;-38
2024/04/17 01:15:45;;;;;;;1.35;1.25;;;8.90;55.90;10.20;100429.00;;;;22630018;26;20398;-38
2024/04/17 01:25:48;;;;;;;1.25;1.15;;;9.00;56.10;10.50;100436.00;;;;22663863;26;20067;-39
2024/04/17 01:35:50;;;;;;;1.50;1.40;;;9.10;56.20;10.50;100440.00;;;;22668013;26;20536;-38
2024/04/17 01:45:51;;;;;;;1.10;1.10;;;9.20;56.10;10.50;100440.00;;;;22658051;26;19990;-38
2024/04/17 01:55:51;;;;;;;1.58;1.10;;;9.20;56.00;10.40;100449.00;;;;22662013;26;19994;-38
2024/04/17 02:05:52;;;;;;;2.63;1.10;;;9.20;55.90;10.50;100443.00;;;;22651410;26;20024;-38
2024/04/17 02:15:53;;;;;;;2.38;1.30;;;9.20;56.00;10.50;100463.00;;;;22644339;26;20785;-38
2024/04/17 02:25:54;;;;;;;2.77;1.00;;;9.10;56.40;10.50;100462.00;;;;22626534;26;20626;-38
2024/04/17 02:35:55;;;;;;;1.10;1.00;;;9.20;56.20;10.60;100468.00;;;;22590353;26;20051;-38
2024/04/17 02:45:56;;;;;;;1.23;1.13;;;9.20;56.30;10.70;100446.00;;;;22625882;26;20003;-38
2024/04/17 02:55:59;;;;;;;1.90;1.57;;;9.30;56.40;10.80;100460.00;;;;22618723;26;20018;-38
2024/04/17 03:06:00;;;;;;;1.40;1.30;;;9.40;56.50;10.90;100481.00;;;;22623804;26;20777;-40
2024/04/17 03:16:02;;;;;;;2.28;1.10;;;9.40;56.50;10.90;100483.00;;;;22598551;26;20007;-39
2024/04/17 03:26:05;;;;;;;1.40;1.25;;;9.50;56.50;11.10;100480.00;;;;22572534;26;20332;-39
2024/04/17 03:36:06;;;;;;;1.42;1.20;;;9.60;56.60;11.10;100447.00;;;;22633760;26;20010;-38
2024/04/17 03:46:07;;;;;;;1.05;1.05;;;9.60;56.40;11.00;100509.00;;;;22685637;26;20436;-38
2024/04/17 03:56:09;;;;;;;1.00;0.93;;;9.70;56.30;11.00;100518.00;;;;22678446;26;20009;-38
2024/04/17 04:06:13;;;;;;;1.50;1.20;;;9.60;56.30;11.00;100513.00;;;;22678723;26;20009;-38
2024/04/17 04:16:14;;;;;;;1.35;1.27;;;9.70;56.50;11.10;100528.00;;;;22681489;26;20006;-39
2024/04/17 04:26:15;;;;;;;1.60;1.50;;;9.70;56.60;11.20;100519.00;;;;22687716;26;20078;-38
2024/04/17 04:36:15;;;;;;;1.17;1.07;;;9.70;56.60;11.20;100548.00;;;;22678639;26;20002;-38
2024/04/17 04:46:16;;;;;;;1.30;1.20;;;9.80;56.70;11.40;100561.00;;;;22670582;26;20207;-39
2024/04/17 04:56:17;;;;;;;1.47;1.37;;;9.90;56.80;11.50;100570.00;;;;22654493;26;20316;-39
2024/04/17 05:06:17;;;;;;;1.70;1.50;;;10.00;57.00;11.60;100576.00;;;;22657242;26;20428;-39
2024/04/17 05:16:18;;;;;;;1.30;1.20;;;10.10;57.00;11.70;100599.00;;;;22635534;26;20447;-39
2024/04/17 05:26:19;;;;;;;1.52;1.30;;;10.20;57.10;11.90;100598.00;;;;22650988;26;20239;-39
2024/04/17 05:36:20;;;;;;;1.00;1.00;;;10.30;57.20;12.10;100598.00;;;;22635726;26;20436;-39
2024/04/17 05:46:25;;;;;;;0.90;0.90;;;10.50;57.30;12.30;100590.00;;;;22642933;26;20036;-39
2024/04/17 05:56:26;;;;;;;1.65;1.00;;;10.60;57.30;12.50;100601.00;;;;22657615;26;20718;-39
2024/04/17 06:06:26;;;;;;;1.02;0.73;;;10.80;57.50;12.70;100601.00;;;;22624958;26;20132;-39
2024/04/17 06:16:27;;;;;;;0.60;0.60;;;11.00;57.50;12.90;100600.00;;;;22657694;26;20337;-39
2024/04/17 06:26:28;;;;;;;0.70;0.70;;;11.20;57.40;13.10;100625.00;;;;22616482;26;20002;-39
2024/04/17 06:36:29;;;;;;;1.17;0.97;;;11.30;57.30;13.20;100650.00;;;;22621290;26;20901;-39
2024/04/17 06:46:29;;;;;;;0.77;0.77;;;11.50;57.30;13.40;100638.00;;;;22618218;26;20219;-39
2024/04/17 06:56:30;;;;;;;1.00;0.90;;;11.70;57.20;13.60;100639.00;;;;22627246;26;19994;-39
2024/04/17 07:06:31;;;;;;;1.38;0.82;;;11.90;57.30;13.80;100638.00;;;;22655257;26;21025;-39
2024/04/17 07:16:35;;;;;;;1.33;1.00;;;12.10;57.10;13.90;100641.00;;;;22590553;26;20436;-39
2024/04/17 07:26:38;;;;;;;10.80;10.20;;;12.20;56.80;14.10;100657.00;;;;22631337;26;20002;-39
2024/04/17 07:36:40;;;;;;;9.30;8.82;;;12.30;56.90;14.30;100662.00;;;;22617479;26;19998;-39
2024/04/17 07:46:41;;;;;;;8.60;7.85;;;12.50;57.10;14.50;100643.00;;;;22612927;26;20078;-39
2024/04/17 07:56:42;;;;;;;9.00;8.60;;;12.70;57.30;14.90;100655.00;;;;22646430;26;20018;-40
2024/04/17 08:06:43;;;;;;;10.82;7.80;;;12.90;57.20;15.10;100642.00;;;;22631012;26;20017;-40
2024/04/17 08:16:43;;;;;;;8.60;8.10;;;13.10;56.90;15.30;100663.00;;;;22636755;26;20021;-40
2024/04/17 08:26:45;;;;;;;7.80;7.40;;;13.40;56.90;15.50;100670.00;;;;22611323;26;20016;-40
2024/04/17 08:36:47;;;;;;;0.88;0.85;;;13.60;56.90;15.90;100666.00;;;;22652192;26;20263;-40
2024/04/17 08:46:49;;;;;;;1.30;1.13;;;13.80;56.70;16.20;100664.00;;;;22673176;26;20030;-41
2024/04/17 08:56:50;;;;;;;2.95;2.83;;;14.10;56.60;16.40;100659.00;;;;22661561;26;20002;-40
2024/04/17 09:06:52;;;;;;;7.20;6.80;;;14.40;55.90;16.60;100677.00;;;;22661162;26;20025;-40
2024/04/17 09:16:52;;;;;;;6.00;5.70;;;14.50;55.70;16.80;100675.00;;;;22629442;26;19994;-41
2024/04/17 09:26:58;;;;;;;2.40;1.13;;;14.70;55.50;17.10;100673.00;;;;22661707;26;19994;-41
2024/04/17 09:36:59;;;;;;;5.43;4.90;;;14.90;55.80;17.50;100668.00;;;;22614952;26;20353;-41
2024/04/17 09:47:02;;;;;;;5.82;5.63;;;15.20;55.20;17.50;100645.00;;;;22659423;26;19998;-41
2024/04/17 09:57:05;;;;;;;0.70;0.70;;;15.40;54.50;17.70;100641.00;;;;22670637;26;20009;-41
2024/04/17 10:07:10;;;;;;;4.45;4.20;;;15.50;54.20;17.80;100647.00;;;;22631908;26;22001;-41
2024/04/17 10:17:14;;;;;;;3.75;3.55;;;15.70;53.30;18.00;100643.00;;;;22670827;26;19994;-42
2024/04/17 10:27:21;;;;;;;3.60;3.50;;;15.80;52.90;18.20;100642.00;;;;22627302;26;19999;-42
2024/04/17 10:37:26;;;;;;;8.45;8.05;;;15.90;51.60;18.60;100648.00;;;;22664738;26;20028;-42
2024/04/17 10:47:30;;;;;;;11.20;10.60;;;16.20;52.40;18.70;100642.00;;;;22656534;26;20016;-45
2024/04/17 10:57:31;;;;;;;12.15;11.55;;;16.40;51.30;18.80;100642.00;;;;22652563;26;20014;-45
2024/04/17 11:07:32;;;;;;;12.35;11.63;;;16.50;51.10;19.00;100630.00;;;;22656094;26;20012;-43
2024/04/17 11:17:33;;;;;;;11.35;10.75;;;16.60;50.00;19.10;100641.00;;;;22601864;26;19998;-42
2024/04/17 11:27:33;;;;;;;10.87;10.37;;;16.70;49.90;19.30;100636.00;;;;22663251;26;20010;-43
2024/04/17 11:37:34;;;;;;;12.30;11.60;;;16.80;49.70;19.60;100627.00;;;;22617028;26;20003;-43
2024/04/17 11:47:36;;;;;;;11.98;11.38;;;17.10;49.20;20.10;100643.00;;;;22641521;26;20002;-43
2024/04/17 11:57:37;;;;;;;13.18;12.45;;;17.40;49.80;20.60;100655.00;;;;22669235;26;19998;-44
2024/04/17 12:07:41;;;;;;;12.65;12.05;;;17.80;48.40;20.90;100655.00;;;;22685873;26;20009;-45
2024/04/17 12:17:42;;;;;;;12.38;11.77;;;18.20;49.10;21.10;100650.00;;;;22674440;26;20006;-43
2024/04/17 12:27:42;;;;;;;12.95;12.20;;;18.50;48.50;20.70;100662.00;;;;22674010;26;20321;-44
2024/04/17 12:37:43;;;;;;;10.25;9.75;;;18.50;47.50;20.70;100650.00;;;;22633442;26;20013;-44
2024/04/17 12:47:44;;;;;;;9.32;8.93;;;18.40;48.00;20.90;100653.00;;;;22663100;26;20040;-44
2024/04/17 12:57:45;;;;;;;9.25;8.80;;;18.50;47.90;20.70;100651.00;;;;22632050;26;20020;-45
2024/04/17 13:07:46;;;;;;;10.15;9.65;;;18.50;46.80;20.50;100674.00;;;;22652319;26;20009;-45
2024/04/17 13:17:46;;;;;;;9.20;8.70;;;18.30;46.80;20.60;100655.00;;;;22647329;26;20349;-43
2024/04/17 13:27:47;;;;;;;9.90;9.40;;;18.20;47.10;20.50;100678.00;;;;22639327;26;20005;-43
2024/04/17 13:37:48;;;;;;;11.63;11.03;;;18.20;47.40;20.40;100678.00;;;;22642003;26;20701;-43
2024/04/17 13:47:48;;;;;;;11.10;10.60;;;18.10;47.20;20.40;100688.00;;;;22662120;26;20057;-42
2024/04/17 13:57:49;;;;;;;11.80;11.30;;;18.10;47.50;20.50;100691.00;;;;22638469;26;20333;-44
2024/04/17 14:07:50;;;;;;;12.40;11.80;;;18.10;47.60;20.60;100670.00;;;;22648708;26;20331;-43
2024/04/17 14:17:51;;;;;;;11.95;11.35;;;18.20;47.60;20.60;100684.00;;;;22640995;26;20067;-45
2024/04/17 14:27:54;;;;;;;11.43;10.93;;;18.20;47.50;20.60;100682.00;;;;22662630;26;19990;-43
2024/04/17 14:37:55;;;;;;;11.25;10.65;;;18.20;47.50;20.60;100682.00;;;;22612716;26;20018;-42
2024/04/17 14:47:56;;;;;;;11.27;10.68;;;18.30;47.60;20.70;100694.00;;;;22495490;26;20092;-42
2024/04/17 14:57:59;;;;;;;10.98;10.48;;;18.30;47.80;20.90;100673.00;;;;22512995;26;20364;-44
2024/04/17 15:08:01;;;;;;;10.40;9.90;;;18.40;47.40;21.00;100685.00;;;;22511871;26;20006;-42
2024/04/17 15:18:02;;;;;;;7.95;7.60;;;18.50;47.20;21.10;100678.00;;;;22493430;26;20006;-42
2024/04/17 15:28:03;;;;;;;6.30;6.00;;;18.60;47.10;21.20;100691.00;;;;22470147;26;20039;-42
2024/04/17 15:38:04;;;;;;;7.43;7.13;;;18.70;47.20;21.10;100700.00;;;;22504800;26;20092;-42
2024/04/17 15:48:05;;;;;;;8.03;7.07;;;18.70;46.80;20.90;100706.00;;;;22626922;26;19995;-42
2024/04/17 15:58:06;;;;;;;6.00;5.72;;;18.60;46.40;20.70;100715.00;;;;22616562;26;20235;-45
2024/04/17 16:08:09;;;;;;;1.17;1.17;;;18.50;46.30;20.70;100719.00;;;;22639391;26;20042;-44
2024/04/17 16:18:10;;;;;;;1.50;1.40;;;18.40;46.50;20.50;100732.00;;;;22657944;26;20073;-46
2024/04/17 16:28:11;;;;;;;1.27;1.27;;;18.30;46.60;20.40;100707.00;;;;22641248;26;20007;-42
2024/04/17 16:38:11;;;;;;;1.20;1.10;;;18.10;47.00;20.30;100725.00;;;;22615446;26;20429;-46
2024/04/17 16:48:12;;;;;;;1.20;1.10;;;18.10;46.80;19.80;100714.00;;;;22641724;26;19994;-45
2024/04/17 16:58:12;;;;;;;0.83;0.83;;;17.80;46.30;19.30;100738.00;;;;22642190;26;20002;-41
2024/04/17 17:08:13;;;;;;;0.97;0.97;;;17.40;46.30;18.80;100729.00;;;;22597683;26;23305;-45
2024/04/17 17:18:14;;;;;;;0.85;0.85;;;17.00;46.60;18.50;100754.00;;;;22637057;26;20009;-42
2024/04/17 17:28:15;;;;;;;0.82;0.82;;;16.70;47.20;18.00;100759.00;;;;22599841;25;20031;-45
2024/04/17 17:38:15;;;;;;;0.80;0.80;;;16.30;47.00;17.70;100759.00;;;;22618637;26;20052;-41
2024/04/17 17:48:16;;;;;;;0.80;0.80;;;15.90;47.30;17.50;100794.00;;;;22633451;26;20448;-40
2024/04/17 17:58:17;;;;;;;0.73;0.73;;;15.60;47.70;17.30;100797.00;;;;22612232;26;20010;-48
2024/04/17 18:08:18;;;;;;;0.70;0.70;;;15.40;48.00;17.00;100811.00;;;;22645743;26;20013;-47
2024/04/17 18:18:19;;;;;;;2.70;1.20;;;15.20;48.10;16.70;100828.00;;;;22609035;26;20321;-42
2024/04/17 18:28:20;;;;;;;1.70;1.60;;;15.00;48.20;16.50;100843.00;;;;22636586;26;20025;-43
2024/04/17 18:38:21;;;;;;;2.40;2.20;;;14.70;48.30;16.20;100864.00;;;;22661750;26;20677;-41
2024/04/17 18:48:21;;;;;;;1.10;1.10;;;14.50;48.50;16.00;100880.00;;;;22686966;26;20298;-46
2024/04/17 18:58:22;;;;;;;0.93;0.93;;;14.20;48.60;15.80;100885.00;;;;22667290;26;19998;-42
2024/04/17 19:08:24;;;;;;;0.90;0.90;;;14.00;48.70;15.60;100896.00;;;;22648329;26;20227;-46
2024/04/17 19:18:25;;;;;;;1.17;1.00;;;13.90;48.90;15.40;100851.00;;;;22668264;26;20024;-42
2024/04/17 19:28:28;;;;;;;0.82;0.82;;;13.70;49.20;15.20;100854.00;;;;22686108;26;20013;-44
2024/04/17 19:38:29;;;;;;;1.38;0.90;;;13.50;49.40;15.10;100873.00;;;;22649560;26;20542;-39
2024/04/17 19:48:38;;;;;;;5.20;4.60;;;13.40;49.60;15.00;100867.00;;;;22654445;26;20088;-41
2024/04/17 19:58:40;;;;;;;115.93;85.53;;;13.30;50.00;14.90;100870.00;;;;22640339;26;20013;-44
2024/04/17 20:08:42;;;;;;;31.42;22.50;;;13.20;50.00;14.70;100885.00;;;;22650264;26;20006;-44
2024/04/17 20:18:43;;;;;;;26.95;21.35;;;13.00;50.00;14.60;100901.00;;;;22653764;26;20444;-41
2024/04/17 20:28:45;;;;;;;7.50;6.47;;;12.90;50.10;14.40;100903.00;;;;22638333;26;20608;-41
2024/04/17 20:38:46;;;;;;;3.35;2.25;;;12.80;50.20;14.30;100911.00;;;;22634820;26;20250;-44
2024/04/17 20:48:49;;;;;;;8.63;7.25;;;12.70;50.20;14.10;100894.00;;;;22668728;26;20003;-43
2024/04/17 20:58:51;;;;;;;5.13;4.13;;;12.50;50.20;13.90;100912.00;;;;22631960;26;20461;-42
2024/04/17 21:08:51;;;;;;;2.95;2.45;;;12.30;50.20;13.60;100920.00;;;;22660372;26;20066;-45
2024/04/17 21:18:54;;;;;;;1.92;1.83;;;12.20;50.30;13.40;100920.00;;;;22641367;26;19994;-41
2024/04/17 21:28:55;;;;;;;2.78;1.88;;;12.00;50.30;13.10;100947.00;;;;22661799;26;20002;-41
2024/04/17 21:38:56;;;;;;;2.10;1.90;;;11.80;50.30;12.90;100961.00;;;;22596221;26;20077;-38
2024/04/17 21:48:58;;;;;;;2.23;1.67;;;11.60;50.30;12.70;100978.00;;;;22641995;26;20227;-39
2024/04/17 21:58:59;;;;;;;2.20;2.00;;;11.40;50.40;12.40;100968.00;;;;22671642;26;19998;-45
2024/04/17 22:09:00;;;;;;;2.33;1.58;;;11.20;50.40;12.20;100978.00;;;;22668015;26;20332;-39
2024/04/17 22:19:00;;;;;;;1.07;1.07;;;10.90;50.40;11.90;100994.00;;;;22666936;26;20002;-43
2024/04/17 22:29:01;;;;;;;1.42;1.30;;;10.70;50.60;11.70;100998.00;;;;22667402;26;20013;-40
2024/04/17 22:39:02;;;;;;;1.00;1.00;;;10.40;50.60;11.50;101002.00;;;;22646560;26;20038;-41
2024/04/17 22:49:03;;;;;;;1.10;1.00;;;10.30;50.80;11.30;100994.00;;;;22648278;26;19998;-41
2024/04/17 22:59:03;;;;;;;1.10;0.90;;;10.10;51.40;11.10;101031.00;;;;22661035;26;20085;-43
2024/04/17 23:09:09;;;;;;;0.98;0.98;;;9.90;50.90;10.90;101019.00;;;;22653342;26;20266;-42
2024/04/17 23:19:10;;;;;;;1.15;1.08;;;9.70;51.00;10.80;101035.00;;;;22657213;26;20078;-39
2024/04/17 23:29:12;;;;;;;1.65;1.55;;;9.60;51.10;10.60;101046.00;;;;22636864;26;20014;-38
2024/04/17 23:39:13;;;;;;;1.95;1.60;;;9.40;51.10;10.40;101048.00;;;;22621165;26;20003;-37
2024/04/17 23:49:14;;;;;;;1.95;1.13;;;9.20;51.20;10.30;101058.00;;;;22658148;26;20009;-38
2024/04/17 23:59:15;;;;;;;1.77;1.50;;;9.10;51.20;10.10;101054.00;;;;22660494;26;20009;-39
